createdAt,value
2023-02-27T00:00:16.471Z,-4.30
2023-02-27T00:02:45.251Z,-4.30
2023-02-27T00:05:12.641Z,-4.40
2023-02-27T00:07:39.720Z,-4.40
2023-02-27T00:10:08.014Z,-4.50
2023-02-27T00:12:37.722Z,-4.50
2023-02-27T00:15:09.739Z,-4.50
2023-02-27T00:17:36.989Z,-4.50
2023-02-27T00:20:05.888Z,-4.50
2023-02-27T00:22:35.911Z,-4.50
2023-02-27T00:25:02.784Z,-4.50
2023-02-27T00:27:29.713Z,-4.50
2023-02-27T00:29:56.532Z,-4.50
2023-02-27T00:32:23.541Z,-4.50
2023-02-27T00:34:50.436Z,-4.40
2023-02-27T00:37:17.556Z,-4.50
2023-02-27T00:39:44.303Z,-4.50
2023-02-27T00:42:11.057Z,-4.40
2023-02-27T00:44:38.537Z,-4.40
2023-02-27T00:47:05.337Z,-4.40
2023-02-27T00:49:32.164Z,-4.40
2023-02-27T00:51:58.916Z,-4.40
2023-02-27T00:54:25.824Z,-4.40
2023-02-27T00:56:52.882Z,-4.50
2023-02-27T00:59:19.751Z,-4.50
2023-02-27T01:01:46.639Z,-4.50
2023-02-27T01:04:13.454Z,-4.50
2023-02-27T01:06:40.256Z,-4.50
2023-02-27T01:09:07.391Z,-4.50
2023-02-27T01:11:34.207Z,-4.50
2023-02-27T01:14:01.685Z,-4.50
2023-02-27T01:16:28.906Z,-4.40
2023-02-27T01:18:55.792Z,-4.40
2023-02-27T01:21:23.480Z,-4.40
2023-02-27T01:23:56.122Z,-4.30
2023-02-27T01:26:22.959Z,-4.30
2023-02-27T01:28:49.765Z,-4.30
2023-02-27T01:31:16.669Z,-4.20
2023-02-27T01:33:43.544Z,-4.20
2023-02-27T01:36:11.116Z,-4.20
2023-02-27T01:38:37.978Z,-4.20
2023-02-27T01:41:07.259Z,-4.30
2023-02-27T01:43:35.002Z,-4.20
2023-02-27T01:46:01.973Z,-4.30
2023-02-27T01:48:35.735Z,-4.30
2023-02-27T01:51:11.230Z,-4.30
2023-02-27T01:53:40.395Z,-4.30
2023-02-27T01:56:16.696Z,-4.30
2023-02-27T01:58:45.413Z,-4.30
2023-02-27T02:01:12.352Z,-4.30
2023-02-27T02:04:00.571Z,-4.30
2023-02-27T02:06:30.758Z,-4.30
2023-02-27T02:08:59.590Z,-4.30
2023-02-27T02:11:27.552Z,-4.30
2023-02-27T02:13:58.256Z,-4.30
2023-02-27T02:16:54.665Z,-4.40
2023-02-27T02:19:46.403Z,-4.40
2023-02-27T02:22:34.728Z,-4.40
2023-02-27T02:25:39.102Z,-4.40
2023-02-27T02:28:14.731Z,-4.40
2023-02-27T02:30:59.679Z,-4.40
2023-02-27T02:33:52.783Z,-4.40
2023-02-27T02:36:50.015Z,-4.40
2023-02-27T02:39:35.294Z,-4.50
2023-02-27T02:42:25.637Z,-4.50
2023-02-27T02:45:22.120Z,-4.60
2023-02-27T02:48:17.515Z,-4.60
2023-02-27T02:50:54.720Z,-4.60
2023-02-27T02:53:42.086Z,-4.60
2023-02-27T02:56:21.605Z,-4.70
2023-02-27T02:58:59.654Z,-4.70
2023-02-27T03:01:59.565Z,-4.70
2023-02-27T03:04:40.795Z,-4.80
2023-02-27T03:07:40.807Z,-4.80
2023-02-27T03:10:21.575Z,-4.90
2023-02-27T03:12:59.521Z,-4.90
2023-02-27T03:15:31.104Z,-5.00
2023-02-27T03:18:24.778Z,-5.00
2023-02-27T03:21:15.260Z,-5.00
2023-02-27T03:23:47.128Z,-5.00
2023-02-27T03:26:29.270Z,-5.00
2023-02-27T03:29:01.483Z,-5.00
2023-02-27T03:31:37.314Z,-5.00
2023-02-27T03:34:27.314Z,-5.00
2023-02-27T03:37:06.648Z,-5.00
2023-02-27T03:39:45.447Z,-5.00
2023-02-27T03:42:33.417Z,-4.90
2023-02-27T03:45:20.463Z,-4.90
2023-02-27T03:47:47.478Z,-4.90
2023-02-27T03:50:15.090Z,-4.90
2023-02-27T03:52:42.123Z,-4.90
2023-02-27T03:55:35.131Z,-4.90
2023-02-27T03:58:02.271Z,-5.00
2023-02-27T04:00:29.478Z,-4.90
2023-02-27T04:02:58.460Z,-4.90
2023-02-27T04:05:25.534Z,-4.90
2023-02-27T04:08:14.331Z,-5.00
2023-02-27T04:11:27.667Z,-5.00
2023-02-27T04:14:26.793Z,-5.10
2023-02-27T04:17:13.330Z,-5.10
2023-02-27T04:20:01.730Z,-5.20
2023-02-27T04:22:40.007Z,-5.20
2023-02-27T04:25:27.080Z,-5.30
2023-02-27T04:28:07.666Z,-5.30
2023-02-27T04:30:54.491Z,-5.30
2023-02-27T04:33:29.954Z,-5.30
2023-02-27T04:36:06.383Z,-5.30
2023-02-27T04:38:51.456Z,-5.30
2023-02-27T04:41:18.064Z,-5.30
2023-02-27T04:43:46.575Z,-5.30
2023-02-27T04:46:16.538Z,-5.20
2023-02-27T04:49:22.853Z,-5.20
2023-02-27T04:51:55.724Z,-5.20
2023-02-27T04:54:41.520Z,-5.20
2023-02-27T04:57:14.149Z,-5.20
2023-02-27T04:59:48.350Z,-5.20
2023-02-27T05:02:24.957Z,-5.20
2023-02-27T05:05:02.025Z,-5.20
2023-02-27T05:07:39.418Z,-5.20
2023-02-27T05:10:12.623Z,-5.20
2023-02-27T05:12:45.894Z,-5.10
2023-02-27T05:15:15.875Z,-5.10
2023-02-27T05:17:54.679Z,-5.20
2023-02-27T05:20:27.850Z,-5.20
2023-02-27T05:23:02.578Z,-5.20
2023-02-27T05:25:29.718Z,-5.20
2023-02-27T05:28:18.224Z,-5.20
2023-02-27T05:31:33.276Z,-5.20
2023-02-27T05:34:09.762Z,-5.30
2023-02-27T05:36:51.420Z,-5.30
2023-02-27T05:39:21.965Z,-5.30
2023-02-27T05:41:53.933Z,-5.30
2023-02-27T05:44:25.715Z,-5.30
2023-02-27T05:47:02.078Z,-5.30
2023-02-27T05:49:54.968Z,-5.30
2023-02-27T05:52:25.305Z,-5.30
2023-02-27T05:55:02.611Z,-5.30
2023-02-27T05:58:01.774Z,-5.30
2023-02-27T06:00:46.173Z,-5.30
2023-02-27T06:03:13.808Z,-5.30
2023-02-27T06:05:42.475Z,-5.40
2023-02-27T06:08:10.720Z,-5.40
2023-02-27T06:10:38.202Z,-5.40
2023-02-27T06:13:05.239Z,-5.30
2023-02-27T06:15:32.137Z,-5.30
2023-02-27T06:17:59.857Z,-5.30
2023-02-27T06:20:27.185Z,-5.20
2023-02-27T06:22:55.431Z,-5.20
2023-02-27T06:25:22.547Z,-5.20
2023-02-27T06:27:49.716Z,-5.10
2023-02-27T06:30:16.852Z,-5.00
2023-02-27T06:32:43.710Z,-4.90
2023-02-27T06:35:10.522Z,-4.80
2023-02-27T06:37:37.380Z,-4.70
2023-02-27T06:40:05.943Z,-4.60
2023-02-27T06:42:33.310Z,-4.50
2023-02-27T06:45:00.105Z,-4.40
2023-02-27T06:47:26.904Z,-4.40
2023-02-27T06:49:54.418Z,-4.30
2023-02-27T06:52:21.206Z,-4.20
2023-02-27T06:54:48.017Z,-4.20
2023-02-27T06:57:14.814Z,-4.10
2023-02-27T06:59:42.716Z,-4.00
2023-02-27T07:02:15.720Z,-4.00
2023-02-27T07:04:43.107Z,-3.90
2023-02-27T07:07:35.531Z,-3.80
2023-02-27T07:09:56.881Z,-3.70
2023-02-27T07:12:23.659Z,-3.60
2023-02-27T07:14:50.549Z,-3.20
2023-02-27T07:17:17.536Z,-2.90
2023-02-27T07:19:45.541Z,-2.60
2023-02-27T07:22:12.916Z,-2.50
2023-02-27T07:24:39.676Z,-2.30
2023-02-27T07:27:06.672Z,-2.00
2023-02-27T07:29:33.469Z,-2.10
2023-02-27T07:32:02.741Z,-2.10
2023-02-27T07:34:29.509Z,-2.10
2023-02-27T07:36:56.258Z,-2.20
2023-02-27T07:39:23.236Z,-2.10
2023-02-27T07:41:50.149Z,-1.90
2023-02-27T07:44:17.147Z,-1.80
2023-02-27T07:46:47.427Z,-1.70
2023-02-27T07:49:14.511Z,-1.60
2023-02-27T07:51:41.655Z,-1.50
2023-02-27T07:54:08.439Z,-1.20
2023-02-27T07:56:35.325Z,-1.00
2023-02-27T07:59:02.403Z,-1.10
2023-02-27T08:01:29.151Z,-1.10
2023-02-27T08:04:29.394Z,-1.10
2023-02-27T08:06:56.357Z,-1.00
2023-02-27T08:09:23.729Z,-0.80
2023-02-27T08:11:50.481Z,-0.40
2023-02-27T08:14:45.311Z,0.40
2023-02-27T08:17:12.193Z,1.10
2023-02-27T08:19:39.405Z,1.00
2023-02-27T08:22:06.146Z,1.00
2023-02-27T08:24:33.084Z,1.20
2023-02-27T08:26:59.936Z,1.80
2023-02-27T08:29:27.938Z,2.70
2023-02-27T08:31:54.881Z,3.90
2023-02-27T08:34:21.769Z,4.30
2023-02-27T08:36:48.684Z,4.20
2023-02-27T08:39:15.656Z,4.30
2023-02-27T08:41:42.498Z,4.80
2023-02-27T08:44:10.683Z,5.10
2023-02-27T08:46:37.891Z,4.90
2023-02-27T08:49:05.145Z,4.40
2023-02-27T08:51:31.922Z,3.90
2023-02-27T08:54:01.404Z,3.40
2023-02-27T08:56:29.452Z,3.10
2023-02-27T08:58:56.570Z,3.00
2023-02-27T09:01:23.907Z,3.10
2023-02-27T09:03:51.013Z,3.10
2023-02-27T09:06:17.906Z,3.60
2023-02-27T09:08:44.739Z,4.00
2023-02-27T09:11:12.149Z,3.80
2023-02-27T09:13:38.976Z,3.60
2023-02-27T09:16:06.233Z,3.50
2023-02-27T09:18:33.033Z,3.40
2023-02-27T09:21:00.303Z,3.60
2023-02-27T09:23:27.117Z,4.10
2023-02-27T09:25:54.048Z,5.00
2023-02-27T09:28:21.478Z,6.20
2023-02-27T09:30:48.274Z,6.60
2023-02-27T09:33:15.256Z,7.00
2023-02-27T09:35:42.419Z,7.90
2023-02-27T09:38:09.366Z,7.70
2023-02-27T09:40:41.932Z,8.00
2023-02-27T09:43:19.189Z,8.50
2023-02-27T09:45:50.187Z,9.20
2023-02-27T09:48:30.043Z,9.90
2023-02-27T09:50:58.339Z,9.40
2023-02-27T09:53:33.715Z,9.60
2023-02-27T09:56:42.316Z,9.90
2023-02-27T09:59:32.344Z,9.90
2023-02-27T10:02:18.208Z,9.70
2023-02-27T10:05:03.317Z,9.60
2023-02-27T10:07:42.202Z,9.30
2023-02-27T10:10:21.004Z,11.00
2023-02-27T10:13:06.091Z,11.70
2023-02-27T10:15:59.760Z,12.60
2023-02-27T10:19:22.873Z,12.80
2023-02-27T10:21:53.913Z,12.00
2023-02-27T10:24:27.439Z,11.20
2023-02-27T10:26:57.073Z,10.50
2023-02-27T10:29:31.533Z,10.20
2023-02-27T10:32:17.275Z,10.40
2023-02-27T10:34:44.942Z,10.50
2023-02-27T10:37:16.138Z,11.20
2023-02-27T10:39:49.055Z,12.30
2023-02-27T10:42:17.417Z,12.40
2023-02-27T10:44:44.407Z,11.80
2023-02-27T10:47:15.502Z,11.30
2023-02-27T10:49:43.943Z,10.70
2023-02-27T10:52:15.729Z,10.20
2023-02-27T10:54:43.403Z,10.20
2023-02-27T10:57:35.173Z,9.10
2023-02-27T11:00:06.372Z,8.50
2023-02-27T11:02:41.856Z,8.70
2023-02-27T11:05:23.713Z,9.60
2023-02-27T11:07:51.395Z,9.00
2023-02-27T11:10:26.059Z,8.90
2023-02-27T11:13:05.028Z,9.90
2023-02-27T11:15:34.785Z,10.90
2023-02-27T11:18:29.951Z,11.00
2023-02-27T11:21:11.977Z,11.20
2023-02-27T11:23:49.327Z,12.50
2023-02-27T11:26:20.675Z,11.40
2023-02-27T11:29:20.063Z,11.70
2023-02-27T11:31:48.862Z,12.90
2023-02-27T11:34:23.821Z,13.00
2023-02-27T11:36:54.320Z,13.10
2023-02-27T11:39:48.735Z,13.20
2023-02-27T11:42:21.596Z,13.50
2023-02-27T11:44:56.119Z,13.50
2023-02-27T11:47:31.920Z,12.30
2023-02-27T11:50:01.466Z,11.50
2023-02-27T11:53:03.678Z,11.30
2023-02-27T11:55:31.956Z,12.80
2023-02-27T11:58:06.419Z,14.00
2023-02-27T12:00:42.125Z,16.00
2023-02-27T12:03:18.120Z,16.30
2023-02-27T12:05:49.208Z,15.40
2023-02-27T12:08:36.690Z,16.40
2023-02-27T12:11:14.670Z,17.10
2023-02-27T12:13:47.457Z,16.50
2023-02-27T12:16:17.496Z,14.80
2023-02-27T12:18:51.601Z,13.10
2023-02-27T12:21:46.949Z,12.00
2023-02-27T12:24:20.874Z,11.00
2023-02-27T12:26:52.653Z,10.10
2023-02-27T12:29:30.318Z,10.00
2023-02-27T12:32:14.219Z,10.50
2023-02-27T12:35:22.550Z,11.70
2023-02-27T12:37:49.432Z,13.40
2023-02-27T12:40:18.144Z,14.70
2023-02-27T12:42:50.905Z,16.70
2023-02-27T12:46:02.151Z,17.80
2023-02-27T12:48:53.453Z,18.40
2023-02-27T12:51:37.971Z,19.20
2023-02-27T12:54:22.881Z,18.40
2023-02-27T12:56:52.688Z,17.10
2023-02-27T12:59:45.855Z,15.50
2023-02-27T13:03:07.621Z,13.50
2023-02-27T13:05:49.810Z,12.10
2023-02-27T13:08:46.820Z,10.70
2023-02-27T13:11:47.561Z,9.90
2023-02-27T13:14:44.725Z,9.00
2023-02-27T13:17:38.420Z,9.50
2023-02-27T13:20:32.247Z,11.80
2023-02-27T13:23:32.344Z,13.30
2023-02-27T13:26:01.132Z,12.80
2023-02-27T13:28:29.452Z,14.10
2023-02-27T13:31:20.552Z,14.40
2023-02-27T13:34:03.406Z,14.80
2023-02-27T13:37:09.100Z,15.20
2023-02-27T13:39:47.260Z,16.60
2023-02-27T13:42:26.123Z,17.30
2023-02-27T13:44:58.199Z,16.60
2023-02-27T13:47:31.080Z,16.50
2023-02-27T13:50:02.429Z,16.40
2023-02-27T13:52:39.247Z,16.40
2023-02-27T13:55:24.980Z,15.30
2023-02-27T13:57:53.470Z,14.10
2023-02-27T14:00:29.478Z,13.60
2023-02-27T14:03:09.893Z,13.00
2023-02-27T14:05:44.722Z,12.20
2023-02-27T14:08:16.451Z,11.20
2023-02-27T14:11:00.622Z,10.20
2023-02-27T14:13:49.232Z,9.60
2023-02-27T14:16:38.154Z,9.00
2023-02-27T14:19:17.862Z,8.50
2023-02-27T14:22:10.777Z,8.10
2023-02-27T14:25:05.277Z,7.80
2023-02-27T14:27:48.559Z,7.90
2023-02-27T14:30:32.656Z,7.90
2023-02-27T14:33:37.641Z,8.00
2023-02-27T14:36:14.771Z,8.10
2023-02-27T14:38:41.593Z,8.40
2023-02-27T14:41:27.318Z,8.20
2023-02-27T14:43:57.325Z,8.20
2023-02-27T14:46:26.720Z,8.20
2023-02-27T14:48:58.982Z,8.10
2023-02-27T14:54:17.984Z,7.80
2023-02-27T14:56:59.552Z,7.60
2023-02-27T14:59:42.837Z,7.20
2023-02-27T15:02:16.299Z,7.10
2023-02-27T15:04:43.237Z,6.90
2023-02-27T15:07:24.477Z,6.80
2023-02-27T15:09:56.215Z,6.70
2023-02-27T15:12:25.170Z,6.70
2023-02-27T15:14:58.528Z,6.60
2023-02-27T15:17:26.336Z,6.40
2023-02-27T15:19:58.623Z,6.30
2023-02-27T15:22:38.586Z,6.20
2023-02-27T15:25:07.863Z,6.20
2023-02-27T15:27:37.287Z,6.10
2023-02-27T15:30:04.780Z,6.00
2023-02-27T15:32:35.407Z,5.80
2023-02-27T15:35:05.571Z,5.50
2023-02-27T15:37:34.312Z,5.30
2023-02-27T15:40:02.205Z,5.00
2023-02-27T15:42:36.405Z,4.90
2023-02-27T15:45:05.042Z,4.70
2023-02-27T15:47:33.096Z,4.60
2023-02-27T15:50:07.377Z,4.50
2023-02-27T15:52:43.287Z,4.30
2023-02-27T15:55:16.759Z,4.20
2023-02-27T15:57:56.613Z,4.10
2023-02-27T16:00:30.944Z,4.00
2023-02-27T16:02:58.660Z,3.90
2023-02-27T16:05:30.882Z,3.80
2023-02-27T16:07:57.818Z,3.70
2023-02-27T16:10:28.689Z,3.60
2023-02-27T16:12:55.923Z,3.50
2023-02-27T16:15:33.280Z,3.40
2023-02-27T16:18:06.648Z,3.30
2023-02-27T16:21:10.314Z,3.20
2023-02-27T16:23:37.518Z,3.10
2023-02-27T16:26:07.075Z,3.00
2023-02-27T16:28:57.334Z,2.90
2023-02-27T16:31:27.589Z,2.80
2023-02-27T16:33:56.602Z,2.70
2023-02-27T16:36:29.170Z,2.60
2023-02-27T16:38:56.650Z,2.50
2023-02-27T16:41:24.777Z,2.40
2023-02-27T16:43:53.504Z,2.30
2023-02-27T16:46:23.295Z,2.20
2023-02-27T16:48:52.356Z,2.10
2023-02-27T16:51:23.252Z,2.10
2023-02-27T16:53:52.658Z,2.00
2023-02-27T16:56:32.220Z,1.90
2023-02-27T17:02:25.096Z,1.70
2023-02-27T17:04:52.179Z,1.50
2023-02-27T17:07:19.274Z,1.40
2023-02-27T17:09:47.231Z,1.30
2023-02-27T17:12:14.246Z,1.20
2023-02-27T17:14:41.131Z,1.10
2023-02-27T17:17:08.025Z,1.10
2023-02-27T17:19:34.856Z,1.00
2023-02-27T17:22:01.629Z,0.90
2023-02-27T17:24:28.460Z,0.80
2023-02-27T17:26:55.659Z,0.70
2023-02-27T17:29:23.873Z,0.70
2023-02-27T17:31:51.196Z,0.50
2023-02-27T17:34:18.141Z,0.50
2023-02-27T17:36:45.008Z,0.40
2023-02-27T17:39:13.770Z,0.30
2023-02-27T17:41:43.565Z,0.20
2023-02-27T17:44:12.121Z,0.20
2023-02-27T17:46:39.345Z,0.10
2023-02-27T17:49:06.593Z,0.00
2023-02-27T17:51:34.027Z,0.00
2023-02-27T17:54:03.497Z,-0.10
2023-02-27T17:56:30.701Z,-0.10
2023-02-27T17:58:57.973Z,-0.20
2023-02-27T18:01:26.203Z,-0.30
2023-02-27T18:03:54.909Z,-0.30
2023-02-27T18:06:22.931Z,-0.40
2023-02-27T18:08:50.051Z,-0.40
2023-02-27T18:11:20.365Z,-0.40
2023-02-27T18:13:47.790Z,-0.50
2023-02-27T18:16:14.932Z,-0.60
2023-02-27T18:18:42.547Z,-0.60
2023-02-27T18:21:15.450Z,-0.70
2023-02-27T18:23:42.453Z,-0.80
2023-02-27T18:26:30.130Z,-0.90
2023-02-27T18:29:04.207Z,-1.00
2023-02-27T18:31:34.974Z,-1.10
2023-02-27T18:34:02.402Z,-1.10
2023-02-27T18:36:30.463Z,-1.10
2023-02-27T18:38:58.746Z,-1.20
2023-02-27T18:41:25.734Z,-1.20
2023-02-27T18:43:52.932Z,-1.20
2023-02-27T18:46:20.207Z,-1.30
2023-02-27T18:48:47.316Z,-1.30
2023-02-27T18:51:15.670Z,-1.30
2023-02-27T18:53:45.823Z,-1.40
2023-02-27T18:56:14.959Z,-1.40
2023-02-27T18:58:42.413Z,-1.40
2023-02-27T19:01:27.586Z,-1.50
2023-02-27T19:04:00.089Z,-1.60
2023-02-27T19:06:27.854Z,-1.60
2023-02-27T19:08:55.007Z,-1.70
2023-02-27T19:11:28.609Z,-1.70
2023-02-27T19:13:57.723Z,-1.80
2023-02-27T19:16:25.162Z,-1.90
2023-02-27T19:22:35.813Z,-2.00
2023-02-27T19:25:02.600Z,-2.00
2023-02-27T19:27:31.862Z,-2.10
2023-02-27T19:30:01.301Z,-2.00
2023-02-27T19:32:28.581Z,-2.10
2023-02-27T19:34:55.383Z,-2.10
2023-02-27T19:37:22.338Z,-2.10
2023-02-27T19:39:49.136Z,-2.10
2023-02-27T19:42:15.968Z,-2.20
2023-02-27T19:44:43.299Z,-2.20
2023-02-27T19:47:10.090Z,-2.30
2023-02-27T19:49:37.630Z,-2.30
2023-02-27T19:52:04.611Z,-2.30
2023-02-27T19:54:31.528Z,-2.30
2023-02-27T19:56:58.694Z,-2.40
2023-02-27T19:59:25.613Z,-2.40
2023-02-27T20:01:53.334Z,-2.40
2023-02-27T20:04:20.229Z,-2.50
2023-02-27T20:06:50.093Z,-2.50
2023-02-27T20:09:18.012Z,-2.50
2023-02-27T20:11:46.307Z,-2.50
2023-02-27T20:14:15.027Z,-2.50
2023-02-27T20:16:42.764Z,-2.50
2023-02-27T20:19:13.985Z,-2.50
2023-02-27T20:21:41.175Z,-2.50
2023-02-27T20:24:10.297Z,-2.50
2023-02-27T20:26:46.190Z,-2.60
2023-02-27T20:29:20.139Z,-2.60
2023-02-27T20:31:48.756Z,-2.60
2023-02-27T20:34:21.985Z,-2.70
2023-02-27T20:36:53.653Z,-2.70
2023-02-27T20:39:21.191Z,-2.70
2023-02-27T20:41:48.568Z,-2.80
2023-02-27T20:44:15.709Z,-2.80
2023-02-27T20:46:43.560Z,-2.80
2023-02-27T20:49:12.399Z,-2.80
2023-02-27T20:51:40.179Z,-2.90
2023-02-27T20:54:11.237Z,-2.90
2023-02-27T20:56:41.235Z,-2.90
2023-02-27T20:59:12.092Z,-2.90
2023-02-27T21:01:39.120Z,-3.00
2023-02-27T21:04:06.377Z,-3.00
2023-02-27T21:06:34.809Z,-3.00
2023-02-27T21:09:05.301Z,-3.10
2023-02-27T21:11:33.919Z,-3.10
2023-02-27T21:14:09.220Z,-3.10
2023-02-27T21:16:36.783Z,-3.10
2023-02-27T21:19:04.307Z,-3.20
2023-02-27T21:21:33.242Z,-3.20
2023-02-27T21:24:00.517Z,-3.20
2023-02-27T21:26:28.788Z,-3.20
2023-02-27T21:29:07.679Z,-3.20
2023-02-27T21:31:35.690Z,-3.30
2023-02-27T21:34:05.379Z,-3.30
2023-02-27T21:36:34.958Z,-3.30
2023-02-27T21:39:05.276Z,-3.40
2023-02-27T21:41:32.380Z,-3.40
2023-02-27T21:44:03.704Z,-3.50
2023-02-27T21:46:30.799Z,-3.50
2023-02-27T21:48:58.157Z,-3.50
2023-02-27T21:51:38.934Z,-3.50
2023-02-27T21:54:06.806Z,-3.50
2023-02-27T21:56:33.773Z,-3.50
2023-02-27T21:59:01.908Z,-3.50
2023-02-27T22:01:29.773Z,-3.50
2023-02-27T22:03:57.335Z,-3.50
2023-02-27T22:06:26.763Z,-3.60
2023-02-27T22:08:58.533Z,-3.60
2023-02-27T22:11:27.478Z,-3.60
2023-02-27T22:13:54.868Z,-3.60
2023-02-27T22:16:22.247Z,-3.60
2023-02-27T22:18:49.424Z,-3.70
2023-02-27T22:21:22.640Z,-3.70
2023-02-27T22:23:49.847Z,-3.80
2023-02-27T22:26:22.799Z,-3.80
2023-02-27T22:28:50.182Z,-3.80
2023-02-27T22:31:19.767Z,-3.80
2023-02-27T22:33:49.434Z,-3.80
2023-02-27T22:36:20.183Z,-3.80
2023-02-27T22:38:48.089Z,-3.90
2023-02-27T22:41:17.481Z,-3.90
2023-02-27T22:43:45.264Z,-3.90
2023-02-27T22:46:14.738Z,-3.90
2023-02-27T22:48:41.693Z,-3.90
2023-02-27T22:51:12.821Z,-4.00
2023-02-27T22:53:40.805Z,-4.00
2023-02-27T22:56:10.451Z,-4.00
2023-02-27T22:58:38.950Z,-4.00
2023-02-27T23:01:26.535Z,-4.00
2023-02-27T23:03:57.261Z,-4.00
2023-02-27T23:06:30.901Z,-4.10
2023-02-27T23:08:58.783Z,-4.10
2023-02-27T23:11:25.940Z,-4.10
2023-02-27T23:13:53.178Z,-4.20
2023-02-27T23:16:20.627Z,-4.20
2023-02-27T23:18:53.998Z,-4.20
2023-02-27T23:21:24.026Z,-4.20
2023-02-27T23:23:53.811Z,-4.20
2023-02-27T23:26:21.096Z,-4.20
2023-02-27T23:28:47.887Z,-4.30
2023-02-27T23:31:14.690Z,-4.30
2023-02-27T23:33:41.484Z,-4.30
2023-02-27T23:36:08.417Z,-4.30
2023-02-27T23:38:35.223Z,-4.40
2023-02-27T23:41:09.708Z,-4.40
2023-02-27T23:43:55.347Z,-4.40
2023-02-27T23:46:22.188Z,-4.40
2023-02-27T23:48:49.431Z,-4.40
2023-02-27T23:51:16.655Z,-4.50
2023-02-27T23:53:43.448Z,-4.50
2023-02-27T23:56:20.616Z,-4.50
2023-02-27T23:58:48.770Z,-4.50
